Time;durP1;ratioP1;P1;durP2;ratioP2;P2;SDS_P1;SDS_P2;PMS_P1;PMS_P2;Temp;Humidity;BMP_temperature;BMP_pressure;BME280_temperature;BME280_humidity;BME280_pressure;Samples;Min_cycle;Max_cycle;Signal;HPM_P1;HPM_P2
2024/02/06 00:01:18;;;;;;;0.10;0.10;;;;;;;;;;5028074;28;20046;-85
2024/02/06 00:03:44;;;;;;;0.10;0.10;;;;;;;;;;5027947;28;20125;-85
2024/02/06 00:06:10;;;;;;;0.10;0.10;;;;;;;;;;5027639;28;20133;-84
2024/02/06 00:08:39;;;;;;;0.10;0.10;;;;;;;;;;5011404;28;20057;-84
2024/02/06 00:11:07;;;;;;;0.22;0.22;;;;;;;;;;5027839;28;20133;-84
2024/02/06 00:13:33;;;;;;;0.10;0.10;;;;;;;;;;5027876;28;20068;-84
2024/02/06 00:15:59;;;;;;;0.10;0.10;;;;;;;;;;5011443;28;20426;-84
2024/02/06 00:18:26;;;;;;;0.10;0.10;;;;;;;;;;5011301;28;20053;-83
2024/02/06 00:20:52;;;;;;;0.22;0.22;;;;;;;;;;5027525;28;20092;-84
2024/02/06 00:23:18;;;;;;;0.68;0.50;;;;;;;;;;5011480;28;20218;-84
2024/02/06 00:25:44;;;;;;;1.00;0.30;;;;;;;;;;5027883;28;20121;-84
2024/02/06 00:28:10;;;;;;;0.10;0.10;;;;;;;;;;5011106;28;20084;-84
2024/02/06 00:30:36;;;;;;;0.10;0.10;;;;;;;;;;5011382;28;20042;-84
2024/02/06 00:33:02;;;;;;;0.10;0.10;;;;;;;;;;5027574;28;20048;-84
2024/02/06 00:35:29;;;;;;;0.20;0.20;;;;;;;;;;5027497;28;20041;-85
2024/02/06 00:37:57;;;;;;;0.10;0.10;;;;;;;;;;5027480;28;20405;-84
2024/02/06 00:40:23;;;;;;;0.75;0.75;;;;;;;;;;5010777;28;20042;-84
2024/02/06 00:42:49;;;;;;;0.10;0.10;;;;;;;;;;5011090;28;20044;-83
2024/02/06 00:45:18;;;;;;;0.10;0.10;;;;;;;;;;5011265;28;20041;-84
2024/02/06 00:47:47;;;;;;;0.30;0.30;;;;;;;;;;5011296;28;20389;-84
2024/02/06 00:50:14;;;;;;;0.10;0.10;;;;;;;;;;5026734;28;20092;-83
2024/02/06 00:52:40;;;;;;;0.10;0.10;;;;;;;;;;5010780;28;20485;-84
2024/02/06 00:55:07;;;;;;;0.28;0.28;;;;;;;;;;5027301;28;20128;-84
2024/02/06 00:57:33;;;;;;;0.10;0.10;;;;;;;;;;5027280;28;20037;-84
2024/02/06 00:59:59;;;;;;;0.10;0.10;;;;;;;;;;5010803;28;20042;-85
2024/02/06 01:02:25;;;;;;;0.28;0.28;;;;;;;;;;5010899;28;20134;-85
2024/02/06 01:04:52;;;;;;;0.10;0.10;;;;;;;;;;5011143;28;20077;-85
2024/02/06 01:07:18;;;;;;;0.20;0.20;;;;;;;;;;5010664;28;20092;-84
2024/02/06 01:09:45;;;;;;;0.30;0.30;;;;;;;;;;5027085;28;20046;-85
2024/02/06 01:12:11;;;;;;;0.30;0.30;;;;;;;;;;5010872;28;20045;-83
2024/02/06 01:14:37;;;;;;;0.30;0.30;;;;;;;;;;5010748;28;20535;-85
2024/02/06 01:17:04;;;;;;;0.10;0.10;;;;;;;;;;5030381;28;20038;-84
2024/02/06 01:19:30;;;;;;;0.10;0.10;;;;;;;;;;5014429;28;20087;-84
2024/02/06 01:21:56;;;;;;;0.20;0.20;;;;;;;;;;5014487;28;20073;-84
2024/02/06 01:24:22;;;;;;;0.10;0.10;;;;;;;;;;5031411;28;20147;-84
2024/02/06 01:26:48;;;;;;;0.10;0.10;;;;;;;;;;5014364;28;20500;-84
2024/02/06 01:29:14;;;;;;;0.10;0.10;;;;;;;;;;5030802;28;20042;-84
2024/02/06 01:31:41;;;;;;;0.10;0.10;;;;;;;;;;5030546;28;20482;-84
2024/02/06 01:34:07;;;;;;;0.10;0.10;;;;;;;;;;5014078;28;20053;-83
2024/02/06 01:36:34;;;;;;;0.20;0.20;;;;;;;;;;5030639;28;20041;-84
2024/02/06 01:39:01;;;;;;;0.20;0.20;;;;;;;;;;5030683;28;20088;-84
2024/02/06 01:41:27;;;;;;;0.70;0.20;;;;;;;;;;5013940;28;20042;-84
2024/02/06 01:43:53;;;;;;;0.20;0.20;;;;;;;;;;5014130;28;20045;-83
2024/02/06 01:46:22;;;;;;;0.10;0.10;;;;;;;;;;5030430;28;20042;-84
2024/02/06 01:48:48;;;;;;;0.20;0.20;;;;;;;;;;5030329;28;20089;-84
2024/02/06 01:51:15;;;;;;;0.15;0.15;;;;;;;;;;5030267;28;20563;-84
2024/02/06 01:53:41;;;;;;;0.30;0.30;;;;;;;;;;5013844;28;20057;-84
2024/02/06 01:56:07;;;;;;;0.10;0.10;;;;;;;;;;5013879;28;20038;-83
2024/02/06 01:58:33;;;;;;;0.20;0.20;;;;;;;;;;5014235;28;20037;-84
2024/02/06 02:01:00;;;;;;;0.10;0.10;;;;;;;;;;5030257;28;20477;-84
2024/02/06 02:03:26;;;;;;;0.10;0.10;;;;;;;;;;5013854;28;20041;-85
2024/02/06 02:05:52;;;;;;;0.20;0.20;;;;;;;;;;5029993;28;20050;-84
2024/02/06 02:08:18;;;;;;;0.20;0.20;;;;;;;;;;5029962;28;20050;-84
2024/02/06 02:10:44;;;;;;;0.10;0.10;;;;;;;;;;5013687;28;20393;-84
2024/02/06 02:13:10;;;;;;;0.20;0.20;;;;;;;;;;5013570;28;20073;-83
2024/02/06 02:15:37;;;;;;;0.10;0.10;;;;;;;;;;5013697;28;20445;-84
2024/02/06 02:18:03;;;;;;;0.10;0.10;;;;;;;;;;5029894;28;20038;-84
2024/02/06 02:20:29;;;;;;;0.10;0.10;;;;;;;;;;5013262;28;20045;-84
2024/02/06 02:22:55;;;;;;;0.10;0.10;;;;;;;;;;5013506;28;20056;-83
2024/02/06 02:25:23;;;;;;;0.47;0.45;;;;;;;;;;5029824;28;20046;-84
2024/02/06 02:27:50;;;;;;;0.10;0.10;;;;;;;;;;5012151;28;20388;-84
2024/02/06 02:30:16;;;;;;;0.47;0.47;;;;;;;;;;5013054;28;20053;-83
2024/02/06 02:32:42;;;;;;;0.10;0.10;;;;;;;;;;5029773;28;20084;-85
2024/02/06 02:35:11;;;;;;;0.20;0.20;;;;;;;;;;5013244;28;20088;-84
2024/02/06 02:37:38;;;;;;;0.20;0.20;;;;;;;;;;5029665;28;20108;-84
2024/02/06 02:40:04;;;;;;;0.10;0.10;;;;;;;;;;5013351;28;20077;-83
2024/02/06 02:42:30;;;;;;;0.20;0.20;;;;;;;;;;5029361;28;20046;-84
2024/02/06 02:44:56;;;;;;;0.20;0.20;;;;;;;;;;5013185;28;20092;-84
2024/02/06 02:47:23;;;;;;;0.10;0.10;;;;;;;;;;5029382;28;20042;-83
2024/02/06 02:49:49;;;;;;;0.10;0.10;;;;;;;;;;5029410;28;20049;-83
2024/02/06 02:52:15;;;;;;;0.10;0.10;;;;;;;;;;5012835;28;20034;-84
2024/02/06 02:54:41;;;;;;;0.20;0.20;;;;;;;;;;5029274;28;20045;-84
2024/02/06 02:57:07;;;;;;;0.10;0.10;;;;;;;;;;5029199;28;20577;-84
2024/02/06 02:59:33;;;;;;;0.10;0.10;;;;;;;;;;5012836;28;20045;-84
2024/02/06 03:01:59;;;;;;;0.10;0.10;;;;;;;;;;5012690;28;20152;-84
2024/02/06 03:04:25;;;;;;;0.10;0.10;;;;;;;;;;5029435;28;20041;-85
2024/02/06 03:06:54;;;;;;;0.10;0.10;;;;;;;;;;5028758;28;20060;-84
2024/02/06 03:09:21;;;;;;;0.20;0.20;;;;;;;;;;5028954;28;20064;-84
2024/02/06 03:11:47;;;;;;;5.57;0.63;;;;;;;;;;5028818;28;20034;-84
2024/02/06 03:14:13;;;;;;;0.10;0.10;;;;;;;;;;5029159;28;20042;-84
2024/02/06 03:16:39;;;;;;;0.13;0.13;;;;;;;;;;5028825;28;20037;-85
2024/02/06 03:19:05;;;;;;;0.10;0.10;;;;;;;;;;5028848;28;20089;-84
2024/02/06 03:21:31;;;;;;;0.10;0.10;;;;;;;;;;5012182;28;20037;-84
2024/02/06 03:23:57;;;;;;;0.10;0.10;;;;;;;;;;5029100;28;20401;-84
2024/02/06 03:26:23;;;;;;;0.10;0.10;;;;;;;;;;5028672;28;20046;-85
2024/02/06 03:28:49;;;;;;;0.30;0.30;;;;;;;;;;5012029;28;20549;-85
2024/02/06 03:31:15;;;;;;;0.10;0.10;;;;;;;;;;5012015;28;20172;-84
2024/02/06 03:33:41;;;;;;;0.10;0.10;;;;;;;;;;5028495;28;20144;-84
2024/02/06 03:36:08;;;;;;;0.10;0.10;;;;;;;;;;5028820;28;20104;-85
2024/02/06 03:38:34;;;;;;;0.10;0.10;;;;;;;;;;5028461;28;20332;-84
2024/02/06 03:41:00;;;;;;;0.10;0.10;;;;;;;;;;5028448;28;20042;-85
2024/02/06 03:43:26;;;;;;;0.30;0.30;;;;;;;;;;5028360;28;20053;-85
2024/02/06 03:45:52;;;;;;;0.10;0.10;;;;;;;;;;5028284;28;20133;-84
2024/02/06 03:48:18;;;;;;;0.10;0.10;;;;;;;;;;5011654;28;20170;-84
2024/02/06 03:50:44;;;;;;;0.10;0.10;;;;;;;;;;5028316;28;20129;-84
2024/02/06 03:53:10;;;;;;;0.20;0.20;;;;;;;;;;5028003;28;20044;-84
2024/02/06 03:55:36;;;;;;;0.22;0.22;;;;;;;;;;5027936;28;20124;-84
2024/02/06 03:58:03;;;;;;;0.28;0.28;;;;;;;;;;5011689;28;20527;-86
2024/02/06 04:00:30;;;;;;;0.32;0.32;;;;;;;;;;5028007;28;20073;-85
2024/02/06 04:02:56;;;;;;;0.10;0.10;;;;;;;;;;5027846;28;20061;-84
2024/02/06 04:05:22;;;;;;;0.17;0.17;;;;;;;;;;5011585;28;20046;-84
2024/02/06 04:07:48;;;;;;;0.10;0.10;;;;;;;;;;5028236;28;20038;-84
2024/02/06 04:10:14;;;;;;;0.10;0.10;;;;;;;;;;5011293;28;20081;-84
2024/02/06 04:12:40;;;;;;;0.10;0.10;;;;;;;;;;5011410;28;20034;-84
2024/02/06 04:15:08;;;;;;;0.20;0.20;;;;;;;;;;5027936;28;20093;-83
2024/02/06 04:17:34;;;;;;;0.10;0.10;;;;;;;;;;5011146;28;20042;-85
2024/02/06 04:20:00;;;;;;;0.10;0.10;;;;;;;;;;5011418;28;20041;-84
2024/02/06 04:22:26;;;;;;;0.17;0.17;;;;;;;;;;5011246;28;20045;-84
2024/02/06 04:24:52;;;;;;;0.10;0.10;;;;;;;;;;5011296;28;20045;-84
2024/02/06 04:27:18;;;;;;;0.10;0.10;;;;;;;;;;5011754;28;20064;-84
2024/02/06 04:29:44;;;;;;;0.10;0.10;;;;;;;;;;5011174;28;20400;-84
2024/02/06 04:32:10;;;;;;;0.17;0.17;;;;;;;;;;5027869;28;20392;-83
2024/02/06 04:34:36;;;;;;;0.20;0.20;;;;;;;;;;5011128;28;20109;-85
2024/02/06 04:37:02;;;;;;;0.10;0.10;;;;;;;;;;5011197;28;20536;-85
2024/02/06 04:39:29;;;;;;;0.10;0.10;;;;;;;;;;5027474;28;20069;-84
2024/02/06 04:41:55;;;;;;;0.10;0.10;;;;;;;;;;5011065;28;20120;-84
2024/02/06 04:44:21;;;;;;;0.20;0.20;;;;;;;;;;5011463;28;20058;-84
2024/02/06 04:46:47;;;;;;;0.20;0.20;;;;;;;;;;5011064;28;20081;-85
2024/02/06 04:49:13;;;;;;;0.10;0.10;;;;;;;;;;5027286;28;20489;-84
2024/02/06 04:51:39;;;;;;;0.20;0.20;;;;;;;;;;5030110;28;20524;-84
2024/02/06 04:54:06;;;;;;;0.10;0.10;;;;;;;;;;5031588;28;20046;-85
2024/02/06 04:56:32;;;;;;;0.10;0.10;;;;;;;;;;5015107;28;20100;-85
2024/02/06 04:59:00;;;;;;;0.32;0.32;;;;;;;;;;5031738;28;20041;-85
2024/02/06 05:01:27;;;;;;;0.20;0.20;;;;;;;;;;5031679;28;20041;-84
2024/02/06 05:03:53;;;;;;;0.30;0.30;;;;;;;;;;5014776;28;20111;-85
2024/02/06 05:06:19;;;;;;;0.10;0.10;;;;;;;;;;5014708;28;20519;-84
2024/02/06 05:08:45;;;;;;;0.22;0.22;;;;;;;;;;5031251;28;20054;-84
2024/02/06 05:11:12;;;;;;;0.13;0.13;;;;;;;;;;5015181;28;20535;-85
2024/02/06 05:13:39;;;;;;;0.20;0.20;;;;;;;;;;5031088;28;20045;-84
2024/02/06 05:16:07;;;;;;;0.13;0.13;;;;;;;;;;5014882;28;20053;-84
2024/02/06 05:18:33;;;;;;;0.40;0.40;;;;;;;;;;5014664;28;20481;-85
2024/02/06 05:21:00;;;;;;;0.10;0.10;;;;;;;;;;5030860;28;20049;-85
2024/02/06 05:23:26;;;;;;;0.10;0.10;;;;;;;;;;5014422;28;20489;-85
2024/02/06 05:25:52;;;;;;;0.10;0.10;;;;;;;;;;5030876;28;20493;-85
2024/02/06 05:28:18;;;;;;;0.20;0.20;;;;;;;;;;5014312;28;20513;-85
2024/02/06 05:30:44;;;;;;;0.10;0.10;;;;;;;;;;5030750;28;20038;-84
2024/02/06 05:33:10;;;;;;;0.45;0.45;;;;;;;;;;5030798;28;20049;-85
2024/02/06 05:35:36;;;;;;;0.10;0.10;;;;;;;;;;5030997;28;20065;-84
2024/02/06 05:38:02;;;;;;;0.45;0.25;;;;;;;;;;5030699;28;20044;-85
2024/02/06 05:40:29;;;;;;;0.10;0.10;;;;;;;;;;5014085;28;20061;-84
2024/02/06 05:42:55;;;;;;;0.20;0.20;;;;;;;;;;5014025;28;20046;-83
2024/02/06 05:45:22;;;;;;;0.10;0.10;;;;;;;;;;5030692;28;20045;-83
2024/02/06 05:47:48;;;;;;;0.10;0.10;;;;;;;;;;5014176;28;20046;-83
2024/02/06 05:50:14;;;;;;;0.22;0.22;;;;;;;;;;5013841;28;20045;-83
2024/02/06 05:52:40;;;;;;;0.10;0.10;;;;;;;;;;5013910;28;20037;-83
2024/02/06 05:55:07;;;;;;;0.10;0.10;;;;;;;;;;5014190;28;20125;-83
2024/02/06 05:57:34;;;;;;;0.73;0.73;;;;;;;;;;5014104;28;20046;-84
2024/02/06 06:00:00;;;;;;;0.20;0.20;;;;;;;;;;5013648;28;20048;-84
2024/02/06 06:02:26;;;;;;;0.95;0.95;;;;;;;;;;5029933;28;20046;-83
2024/02/06 06:04:52;;;;;;;0.32;0.32;;;;;;;;;;5030113;28;20042;-85
2024/02/06 06:07:18;;;;;;;0.47;0.47;;;;;;;;;;5030121;28;20062;-85
2024/02/06 06:09:44;;;;;;;0.30;0.30;;;;;;;;;;5013505;28;20078;-83
2024/02/06 06:12:10;;;;;;;0.10;0.10;;;;;;;;;;5030156;28;20042;-85
2024/02/06 06:14:36;;;;;;;0.20;0.20;;;;;;;;;;5013641;28;20124;-83
2024/02/06 06:17:02;;;;;;;0.43;0.20;;;;;;;;;;5013474;28;20126;-85
2024/02/06 06:19:28;;;;;;;0.45;0.45;;;;;;;;;;5013612;28;20049;-85
2024/02/06 06:21:54;;;;;;;0.20;0.20;;;;;;;;;;5029847;28;20045;-83
2024/02/06 06:24:21;;;;;;;0.10;0.10;;;;;;;;;;5029890;28;20056;-84
2024/02/06 06:26:47;;;;;;;0.10;0.10;;;;;;;;;;5013373;28;20042;-84
2024/02/06 06:29:13;;;;;;;0.30;0.30;;;;;;;;;;5013440;28;20050;-85
2024/02/06 06:31:39;;;;;;;0.13;0.13;;;;;;;;;;5013291;28;20073;-85
2024/02/06 06:34:05;;;;;;;0.10;0.10;;;;;;;;;;5013201;28;20042;-84
2024/02/06 06:36:31;;;;;;;0.20;0.20;;;;;;;;;;5029749;28;20075;-84
2024/02/06 06:38:58;;;;;;;0.10;0.10;;;;;;;;;;5029738;28;20481;-85
2024/02/06 06:41:25;;;;;;;0.20;0.20;;;;;;;;;;5029262;28;20050;-83
2024/02/06 06:43:52;;;;;;;0.20;0.20;;;;;;;;;;5013017;28;20037;-83
2024/02/06 06:46:18;;;;;;;0.10;0.10;;;;;;;;;;5029429;28;20046;-83
2024/02/06 06:48:44;;;;;;;0.40;0.40;;;;;;;;;;5013086;28;20374;-84
2024/02/06 06:51:10;;;;;;;0.45;0.30;;;;;;;;;;5029672;28;20073;-83
2024/02/06 06:53:37;;;;;;;0.20;0.20;;;;;;;;;;5013069;28;20437;-84
2024/02/06 06:56:03;;;;;;;0.20;0.20;;;;;;;;;;5029582;28;20394;-84
2024/02/06 06:58:29;;;;;;;0.10;0.10;;;;;;;;;;5013041;28;20051;-86
2024/02/06 07:00:55;;;;;;;0.10;0.10;;;;;;;;;;5012714;28;20049;-87
2024/02/06 07:03:22;;;;;;;0.60;0.60;;;;;;;;;;5013089;28;20125;-87
2024/02/06 07:05:52;;;;;;;0.10;0.10;;;;;;;;;;5029000;28;20100;-86
2024/02/06 07:08:18;;;;;;;1.30;1.27;;;;;;;;;;5012229;28;20038;-87
2024/02/06 07:10:44;;;;;;;0.10;0.10;;;;;;;;;;5012478;28;20042;-83
2024/02/06 07:13:10;;;;;;;0.40;0.20;;;;;;;;;;5028406;28;20612;-84
2024/02/06 07:15:36;;;;;;;0.10;0.10;;;;;;;;;;5028795;28;20513;-86
2024/02/06 07:18:02;;;;;;;0.10;0.10;;;;;;;;;;5029058;28;20366;-84
2024/02/06 07:20:28;;;;;;;0.10;0.10;;;;;;;;;;5012182;28;20497;-84
2024/02/06 07:22:54;;;;;;;0.20;0.20;;;;;;;;;;5028798;28;20048;-84
2024/02/06 07:25:20;;;;;;;0.10;0.10;;;;;;;;;;5012535;28;20034;-84
2024/02/06 07:27:46;;;;;;;0.10;0.10;;;;;;;;;;5028571;28;20049;-83
2024/02/06 07:30:13;;;;;;;0.10;0.10;;;;;;;;;;5011944;28;20120;-84
2024/02/06 07:32:39;;;;;;;0.20;0.20;;;;;;;;;;5011910;28;20047;-83
2024/02/06 07:35:07;;;;;;;0.20;0.20;;;;;;;;;;5028401;28;20042;-85
2024/02/06 07:37:33;;;;;;;0.13;0.13;;;;;;;;;;5011821;28;20490;-85
2024/02/06 07:39:59;;;;;;;0.10;0.10;;;;;;;;;;5028354;28;20126;-85
2024/02/06 07:42:25;;;;;;;0.10;0.10;;;;;;;;;;5011895;28;20046;-85
2024/02/06 07:44:51;;;;;;;0.10;0.10;;;;;;;;;;5028320;28;20045;-84
2024/02/06 07:47:17;;;;;;;0.17;0.17;;;;;;;;;;5011914;28;20045;-84
2024/02/06 07:49:44;;;;;;;0.10;0.10;;;;;;;;;;5011833;28;20100;-85
2024/02/06 07:52:10;;;;;;;0.15;0.15;;;;;;;;;;5028389;28;20045;-84
2024/02/06 07:54:38;;;;;;;0.30;0.30;;;;;;;;;;5028306;28;20038;-85
2024/02/06 07:57:05;;;;;;;0.20;0.20;;;;;;;;;;5027830;28;20125;-85
2024/02/06 07:59:31;;;;;;;0.10;0.10;;;;;;;;;;5028177;28;20053;-84
2024/02/06 08:01:57;;;;;;;0.10;0.10;;;;;;;;;;5028047;28;20041;-84
2024/02/06 08:04:23;;;;;;;0.45;0.20;;;;;;;;;;5028407;28;20045;-85
2024/02/06 08:06:49;;;;;;;0.10;0.10;;;;;;;;;;5028123;28;20091;-86
2024/02/06 08:09:18;;;;;;;0.28;0.28;;;;;;;;;;5028630;28;20413;-86
2024/02/06 08:11:44;;;;;;;0.10;0.10;;;;;;;;;;5011692;28;20038;-83
2024/02/06 08:14:13;;;;;;;0.10;0.10;;;;;;;;;;5028283;28;20038;-86
2024/02/06 08:16:42;;;;;;;0.20;0.20;;;;;;;;;;5012493;28;20057;-85
2024/02/06 08:19:08;;;;;;;0.10;0.10;;;;;;;;;;5011711;28;20129;-86
2024/02/06 08:21:35;;;;;;;0.10;0.10;;;;;;;;;;4995090;28;20061;-85
2024/02/06 08:24:01;;;;;;;0.10;0.10;;;;;;;;;;4995303;28;20463;-85
2024/02/06 08:26:27;;;;;;;0.20;0.20;;;;;;;;;;5011011;28;20045;-85
2024/02/06 08:28:54;;;;;;;0.10;0.10;;;;;;;;;;4994844;28;20053;-85
2024/02/06 08:31:22;;;;;;;0.10;0.10;;;;;;;;;;4994884;28;20042;-87
2024/02/06 08:33:50;;;;;;;0.10;0.10;;;;;;;;;;4995277;28;20042;-84
2024/02/06 08:36:17;;;;;;;0.10;0.10;;;;;;;;;;4995250;28;20400;-84
2024/02/06 08:38:43;;;;;;;1.27;1.17;;;;;;;;;;5011218;28;20050;-86
2024/02/06 08:41:09;;;;;;;0.20;0.20;;;;;;;;;;4994722;28;20084;-86
2024/02/06 08:43:36;;;;;;;0.10;0.10;;;;;;;;;;4994819;28;20065;-85
2024/02/06 08:46:02;;;;;;;0.10;0.10;;;;;;;;;;4994923;28;20064;-85
2024/02/06 08:48:28;;;;;;;0.10;0.10;;;;;;;;;;4994739;28;20339;-85
2024/02/06 08:50:55;;;;;;;0.10;0.10;;;;;;;;;;5011087;28;20084;-85
2024/02/06 08:53:21;;;;;;;0.30;0.30;;;;;;;;;;5010884;28;20042;-83
2024/02/06 08:55:48;;;;;;;0.10;0.10;;;;;;;;;;4994863;28;20050;-83
2024/02/06 08:58:14;;;;;;;0.10;0.10;;;;;;;;;;5011443;28;20458;-83
2024/02/06 09:00:40;;;;;;;0.10;0.10;;;;;;;;;;4994555;28;20505;-84
2024/02/06 09:03:07;;;;;;;0.98;0.20;;;;;;;;;;4994770;28;20397;-84
2024/02/06 09:05:33;;;;;;;0.10;0.10;;;;;;;;;;4994114;28;20038;-82
2024/02/06 09:08:00;;;;;;;0.10;0.10;;;;;;;;;;5010235;28;20085;-83
2024/02/06 09:10:26;;;;;;;0.10;0.10;;;;;;;;;;5009711;28;20041;-83
2024/02/06 09:12:52;;;;;;;0.10;0.10;;;;;;;;;;4994396;28;20084;-83
2024/02/06 09:15:18;;;;;;;0.10;0.10;;;;;;;;;;4994423;28;20129;-82
2024/02/06 09:17:46;;;;;;;0.10;0.10;;;;;;;;;;5011263;28;20042;-82
2024/02/06 09:20:13;;;;;;;0.10;0.10;;;;;;;;;;5028460;28;20046;-83
2024/02/06 09:22:40;;;;;;;0.20;0.20;;;;;;;;;;5010320;28;20042;-83
2024/02/06 09:25:06;;;;;;;0.10;0.10;;;;;;;;;;4994327;28;20048;-83
2024/02/06 09:27:32;;;;;;;0.10;0.10;;;;;;;;;;4994281;28;20525;-83
2024/02/06 09:29:59;;;;;;;0.10;0.10;;;;;;;;;;4994056;28;20038;-84
2024/02/06 09:32:25;;;;;;;0.10;0.10;;;;;;;;;;4992513;28;20038;-83
2024/02/06 09:34:52;;;;;;;0.10;0.10;;;;;;;;;;4994682;28;20505;-84
2024/02/06 09:37:18;;;;;;;0.10;0.10;;;;;;;;;;4996455;28;20050;-84
2024/02/06 09:39:44;;;;;;;0.10;0.10;;;;;;;;;;4998391;28;20433;-84
2024/02/06 09:42:10;;;;;;;0.40;0.40;;;;;;;;;;4997844;28;20075;-83
2024/02/06 09:44:37;;;;;;;0.10;0.10;;;;;;;;;;4997695;28;20536;-87
2024/02/06 09:47:03;;;;;;;0.43;0.35;;;;;;;;;;4998102;28;20069;-83
2024/02/06 09:49:29;;;;;;;0.30;0.30;;;;;;;;;;4997704;28;20401;-83
2024/02/06 09:51:55;;;;;;;0.10;0.10;;;;;;;;;;5013737;28;20046;-83
2024/02/06 09:54:24;;;;;;;0.10;0.10;;;;;;;;;;5025553;28;20193;-84
2024/02/06 09:56:50;;;;;;;0.10;0.10;;;;;;;;;;5033674;28;20066;-81
2024/02/06 09:59:16;;;;;;;0.10;0.10;;;;;;;;;;5016980;28;20041;-84
2024/02/06 10:01:42;;;;;;;0.10;0.10;;;;;;;;;;5017156;28;20045;-84
2024/02/06 10:04:10;;;;;;;0.10;0.10;;;;;;;;;;5033380;28;20060;-83
2024/02/06 10:06:36;;;;;;;0.20;0.20;;;;;;;;;;5016918;28;20119;-86
2024/02/06 10:09:06;;;;;;;0.10;0.10;;;;;;;;;;5032192;28;20049;-84
2024/02/06 10:11:33;;;;;;;0.20;0.20;;;;;;;;;;4997160;28;20037;-84
2024/02/06 10:14:00;;;;;;;0.20;0.20;;;;;;;;;;4997450;28;20034;-83
2024/02/06 10:16:26;;;;;;;0.10;0.10;;;;;;;;;;4997373;28;20124;-83
2024/02/06 10:18:56;;;;;;;0.25;0.25;;;;;;;;;;5013619;28;20060;-83
2024/02/06 10:21:22;;;;;;;0.10;0.10;;;;;;;;;;4997354;28;20188;-83
2024/02/06 10:23:49;;;;;;;0.85;0.65;;;;;;;;;;5013590;28;20121;-84
2024/02/06 10:26:22;;;;;;;1.45;1.05;;;;;;;;;;5013725;28;20440;-84
2024/02/06 10:28:48;;;;;;;6.30;2.08;;;;;;;;;;5013223;28;20078;-84
2024/02/06 10:31:14;;;;;;;0.10;0.10;;;;;;;;;;5013179;28;20482;-84
2024/02/06 10:33:40;;;;;;;0.10;0.10;;;;;;;;;;5013383;28;20377;-83
2024/02/06 10:36:06;;;;;;;0.20;0.20;;;;;;;;;;5014588;28;20037;-83
2024/02/06 10:38:32;;;;;;;0.20;0.20;;;;;;;;;;4996880;28;20567;-83
2024/02/06 10:40:58;;;;;;;0.20;0.20;;;;;;;;;;4997125;28;20450;-85
2024/02/06 10:43:29;;;;;;;0.22;0.20;;;;;;;;;;5013172;28;20037;-83
2024/02/06 10:45:58;;;;;;;0.20;0.20;;;;;;;;;;5014094;28;20096;-83
2024/02/06 10:48:24;;;;;;;0.10;0.10;;;;;;;;;;5011830;28;20053;-83
2024/02/06 10:51:00;;;;;;;0.20;0.20;;;;;;;;;;4996892;28;20072;-83
2024/02/06 10:53:26;;;;;;;0.17;0.10;;;;;;;;;;4996696;28;20042;-83
2024/02/06 10:56:00;;;;;;;0.10;0.10;;;;;;;;;;4996629;28;20041;-83
2024/02/06 10:58:28;;;;;;;2.58;0.60;;;;;;;;;;5012547;28;20037;-83
2024/02/06 11:00:54;;;;;;;0.10;0.10;;;;;;;;;;5012973;28;20046;-83
2024/02/06 11:03:20;;;;;;;0.10;0.10;;;;;;;;;;4996541;28;20093;-81
2024/02/06 11:06:06;;;;;;;0.10;0.10;;;;;;;;;;5012591;28;20041;-83
2024/02/06 11:08:33;;;;;;;0.13;0.13;;;;;;;;;;5011447;28;20049;-85
2024/02/06 11:11:03;;;;;;;0.10;0.10;;;;;;;;;;5012516;28;20096;-83
2024/02/06 11:13:29;;;;;;;0.10;0.10;;;;;;;;;;5012690;28;20128;-83
2024/02/06 11:16:02;;;;;;;0.35;0.25;;;;;;;;;;5012497;28;20129;-83
2024/02/06 11:18:28;;;;;;;1.95;0.35;;;;;;;;;;5012447;28;20092;-80
2024/02/06 11:20:55;;;;;;;0.10;0.10;;;;;;;;;;4976586;28;20182;-84
2024/02/06 11:23:21;;;;;;;0.10;0.10;;;;;;;;;;4976856;28;20074;-83
2024/02/06 11:25:48;;;;;;;0.10;0.10;;;;;;;;;;5011517;28;20037;-84
2024/02/06 11:28:15;;;;;;;0.10;0.10;;;;;;;;;;4996136;28;20049;-85
2024/02/06 11:30:43;;;;;;;0.10;0.10;;;;;;;;;;4995819;28;20096;-85
2024/02/06 11:33:09;;;;;;;0.10;0.10;;;;;;;;;;5012023;28;20465;-85
2024/02/06 11:35:36;;;;;;;0.10;0.10;;;;;;;;;;4995956;28;20042;-85
2024/02/06 11:38:02;;;;;;;0.22;0.22;;;;;;;;;;5011609;28;20139;-84
2024/02/06 11:40:28;;;;;;;0.20;0.20;;;;;;;;;;5028295;28;20045;-85
2024/02/06 11:43:00;;;;;;;0.20;0.20;;;;;;;;;;4995677;28;20128;-85
2024/02/06 11:45:26;;;;;;;0.20;0.20;;;;;;;;;;5011733;28;20042;-85
2024/02/06 11:47:57;;;;;;;0.10;0.10;;;;;;;;;;4995832;28;20042;-85
2024/02/06 11:50:44;;;;;;;0.10;0.10;;;;;;;;;;5011347;28;20038;-83
2024/02/06 11:53:17;;;;;;;0.20;0.20;;;;;;;;;;5011786;28;20049;-85
2024/02/06 11:55:46;;;;;;;0.10;0.10;;;;;;;;;;5028094;28;20037;-85
2024/02/06 11:58:13;;;;;;;0.10;0.10;;;;;;;;;;5015186;28;20080;-87
2024/02/06 12:00:39;;;;;;;0.10;0.10;;;;;;;;;;5014549;28;20049;-84
2024/02/06 12:03:05;;;;;;;0.10;0.10;;;;;;;;;;5015200;28;20045;-84
2024/02/06 12:05:38;;;;;;;0.13;0.13;;;;;;;;;;5015126;28;20396;-84
2024/02/06 12:08:04;;;;;;;1.20;1.10;;;;;;;;;;5014899;28;20056;-85
2024/02/06 12:10:31;;;;;;;0.80;0.22;;;;;;;;;;5031112;28;20037;-85
2024/02/06 12:13:00;;;;;;;0.50;0.50;;;;;;;;;;5015160;28;20045;-85
2024/02/06 12:15:28;;;;;;;0.20;0.20;;;;;;;;;;5031323;28;20061;-85
2024/02/06 12:17:54;;;;;;;0.10;0.10;;;;;;;;;;5015024;28;20504;-82
2024/02/06 12:20:20;;;;;;;1.30;0.32;;;;;;;;;;5031225;28;20203;-87
2024/02/06 12:22:59;;;;;;;0.10;0.10;;;;;;;;;;5014827;28;20049;-84
2024/02/06 12:25:25;;;;;;;0.10;0.10;;;;;;;;;;5031124;28;20045;-81
2024/02/06 12:27:58;;;;;;;0.10;0.10;;;;;;;;;;5014790;28;20050;-82
2024/02/06 12:30:25;;;;;;;0.20;0.20;;;;;;;;;;5031132;28;20193;-82
2024/02/06 12:32:51;;;;;;;0.47;0.47;;;;;;;;;;5031160;28;20045;-84
2024/02/06 12:35:17;;;;;;;0.73;0.20;;;;;;;;;;5047700;28;20077;-84
2024/02/06 12:37:44;;;;;;;0.20;0.20;;;;;;;;;;5014930;28;20381;-84
2024/02/06 12:40:10;;;;;;;0.20;0.20;;;;;;;;;;5014044;28;20041;-84
2024/02/06 12:42:36;;;;;;;0.30;0.30;;;;;;;;;;5014624;28;20516;-84
2024/02/06 12:45:03;;;;;;;0.10;0.10;;;;;;;;;;5014498;28;20489;-84
2024/02/06 12:47:29;;;;;;;0.20;0.20;;;;;;;;;;5014385;28;20147;-86
2024/02/06 12:49:58;;;;;;;0.10;0.10;;;;;;;;;;5030799;28;20041;-86
2024/02/06 12:52:24;;;;;;;0.10;0.10;;;;;;;;;;5014457;28;20040;-85
2024/02/06 12:54:51;;;;;;;0.80;0.30;;;;;;;;;;5014347;28;20173;-85
2024/02/06 12:57:17;;;;;;;1.85;0.38;;;;;;;;;;5030819;28;20041;-86
2024/02/06 12:59:48;;;;;;;0.95;0.95;;;;;;;;;;5014291;28;20045;-85
2024/02/06 13:02:14;;;;;;;0.10;0.10;;;;;;;;;;5014367;28;20523;-86
2024/02/06 13:04:40;;;;;;;0.10;0.10;;;;;;;;;;5014434;28;20461;-86
2024/02/06 13:07:17;;;;;;;3.20;1.65;;;;;;;;;;5014135;28;20103;-85
2024/02/06 13:09:43;;;;;;;0.65;0.65;;;;;;;;;;5014423;28;20428;-86
2024/02/06 13:12:10;;;;;;;0.63;0.63;;;;;;;;;;5016061;28;20043;-87
2024/02/06 13:14:36;;;;;;;0.10;0.10;;;;;;;;;;5034511;28;20084;-87
2024/02/06 13:17:02;;;;;;;0.10;0.10;;;;;;;;;;5018448;28;20428;-86
2024/02/06 13:19:29;;;;;;;0.30;0.30;;;;;;;;;;5018376;28;20041;-85
2024/02/06 13:21:56;;;;;;;0.10;0.10;;;;;;;;;;5034686;28;20060;-86
2024/02/06 13:24:22;;;;;;;0.10;0.10;;;;;;;;;;5019180;28;20041;-86
2024/02/06 13:26:48;;;;;;;0.10;0.10;;;;;;;;;;5035186;28;20073;-87
2024/02/06 13:29:14;;;;;;;0.35;0.30;;;;;;;;;;5018926;28;20053;-87
2024/02/06 13:31:40;;;;;;;0.10;0.10;;;;;;;;;;5020998;28;20041;-89
2024/02/06 13:34:06;;;;;;;0.20;0.20;;;;;;;;;;5027556;28;20041;-88
2024/02/06 13:36:33;;;;;;;0.10;0.10;;;;;;;;;;5021123;28;20095;-90
2024/02/06 13:38:59;;;;;;;0.10;0.10;;;;;;;;;;5018255;28;20053;-87
2024/02/06 13:41:25;;;;;;;1.35;0.28;;;;;;;;;;5018113;28;20443;-90
2024/02/06 13:43:56;;;;;;;0.10;0.10;;;;;;;;;;5017742;28;20049;-89
2024/02/06 13:46:23;;;;;;;0.10;0.10;;;;;;;;;;5018357;28;20053;-86
2024/02/06 13:48:49;;;;;;;0.10;0.10;;;;;;;;;;5017552;28;20046;-88
2024/02/06 13:51:16;;;;;;;0.20;0.20;;;;;;;;;;5017591;28;20098;-89
2024/02/06 13:53:42;;;;;;;0.10;0.10;;;;;;;;;;5017513;28;20048;-89
2024/02/06 13:56:08;;;;;;;0.10;0.10;;;;;;;;;;5017381;28;20118;-88
2024/02/06 13:58:34;;;;;;;0.10;0.10;;;;;;;;;;5017464;28;20037;-88
2024/02/06 14:01:00;;;;;;;0.10;0.10;;;;;;;;;;5017295;28;20087;-88
2024/02/06 14:03:26;;;;;;;0.20;0.20;;;;;;;;;;5017393;28;20041;-88
2024/02/06 14:05:54;;;;;;;0.20;0.20;;;;;;;;;;5017022;28;20069;-88
2024/02/06 14:08:20;;;;;;;0.30;0.30;;;;;;;;;;5017567;28;20436;-89
2024/02/06 14:10:48;;;;;;;0.10;0.10;;;;;;;;;;5033331;28;20497;-88
2024/02/06 14:13:14;;;;;;;0.13;0.13;;;;;;;;;;5017326;28;20056;-88
2024/02/06 14:15:40;;;;;;;0.20;0.20;;;;;;;;;;5017088;28;20038;-88
2024/02/06 14:18:06;;;;;;;0.10;0.10;;;;;;;;;;5033493;28;20049;-89
2024/02/06 14:20:32;;;;;;;5.38;0.68;;;;;;;;;;5017075;28;20099;-89
2024/02/06 14:22:58;;;;;;;0.10;0.10;;;;;;;;;;5017143;28;20124;-89
2024/02/06 14:25:24;;;;;;;0.20;0.20;;;;;;;;;;5016937;28;20048;-89
2024/02/06 14:27:50;;;;;;;0.25;0.25;;;;;;;;;;5017161;28;20049;-90
2024/02/06 14:30:16;;;;;;;0.20;0.20;;;;;;;;;;5016682;28;20045;-89
2024/02/06 14:32:42;;;;;;;0.10;0.10;;;;;;;;;;5033236;28;20037;-89
2024/02/06 14:35:08;;;;;;;0.13;0.13;;;;;;;;;;5016868;28;20041;-88
2024/02/06 14:37:34;;;;;;;0.20;0.20;;;;;;;;;;5032954;28;20120;-87
2024/02/06 14:40:00;;;;;;;0.10;0.10;;;;;;;;;;5016792;28;20128;-88